sensor_id;sensor_type;location;lat;lon;timestamp;P1;durP1;ratioP1;P2;durP2;ratioP2
70953;SDS011;58618;47.490;8.736;2024-01-15T00:02:40;21.08;;;9.55;;
70953;SDS011;58618;47.490;8.736;2024-01-15T00:05:28;19.40;;;9.53;;
70953;SDS011;58618;47.490;8.736;2024-01-15T00:08:16;19.15;;;8.27;;
70953;SDS011;58618;47.490;8.736;2024-01-15T00:11:03;20.42;;;8.68;;
70953;SDS011;58618;47.490;8.736;2024-01-15T00:13:51;20.13;;;8.38;;
70953;SDS011;58618;47.490;8.736;2024-01-15T00:16:39;20.13;;;9.07;;
70953;SDS011;58618;47.490;8.736;2024-01-15T00:19:27;24.97;;;9.53;;
70953;SDS011;58618;47.490;8.736;2024-01-15T00:22:19;22.92;;;9.85;;
70953;SDS011;58618;47.490;8.736;2024-01-15T00:25:07;19.35;;;8.50;;
70953;SDS011;58618;47.490;8.736;2024-01-15T00:27:55;25.17;;;9.77;;
70953;SDS011;58618;47.490;8.736;2024-01-15T00:30:42;20.10;;;9.27;;
70953;SDS011;58618;47.490;8.736;2024-01-15T00:33:30;23.27;;;9.17;;
70953;SDS011;58618;47.490;8.736;2024-01-15T00:36:17;20.17;;;8.95;;
70953;SDS011;58618;47.490;8.736;2024-01-15T00:39:06;22.80;;;9.85;;
70953;SDS011;58618;47.490;8.736;2024-01-15T00:41:53;27.73;;;10.10;;
70953;SDS011;58618;47.490;8.736;2024-01-15T00:44:41;23.17;;;9.80;;
70953;SDS011;58618;47.490;8.736;2024-01-15T00:47:29;22.03;;;9.63;;
70953;SDS011;58618;47.490;8.736;2024-01-15T00:50:16;23.85;;;9.82;;
70953;SDS011;58618;47.490;8.736;2024-01-15T00:53:04;24.52;;;9.90;;
70953;SDS011;58618;47.490;8.736;2024-01-15T00:55:52;22.95;;;9.50;;
70953;SDS011;58618;47.490;8.736;2024-01-15T00:58:40;25.48;;;10.15;;
70953;SDS011;58618;47.490;8.736;2024-01-15T01:01:27;22.43;;;8.77;;
70953;SDS011;58618;47.490;8.736;2024-01-15T01:04:15;24.10;;;9.50;;
70953;SDS011;58618;47.490;8.736;2024-01-15T01:07:03;23.42;;;10.00;;
70953;SDS011;58618;47.490;8.736;2024-01-15T01:09:50;23.52;;;9.80;;
70953;SDS011;58618;47.490;8.736;2024-01-15T01:12:39;21.95;;;11.10;;
70953;SDS011;58618;47.490;8.736;2024-01-15T01:15:26;21.33;;;9.93;;
70953;SDS011;58618;47.490;8.736;2024-01-15T01:18:14;23.88;;;10.23;;
70953;SDS011;58618;47.490;8.736;2024-01-15T01:21:01;27.05;;;9.82;;
70953;SDS011;58618;47.490;8.736;2024-01-15T01:23:48;25.00;;;10.50;;
70953;SDS011;58618;47.490;8.736;2024-01-15T01:26:36;24.90;;;10.65;;
70953;SDS011;58618;47.490;8.736;2024-01-15T01:29:25;24.90;;;10.37;;
70953;SDS011;58618;47.490;8.736;2024-01-15T01:32:12;27.67;;;10.57;;
70953;SDS011;58618;47.490;8.736;2024-01-15T01:35:00;25.60;;;10.57;;
70953;SDS011;58618;47.490;8.736;2024-01-15T01:37:47;26.83;;;10.95;;
70953;SDS011;58618;47.490;8.736;2024-01-15T01:40:34;31.05;;;11.70;;
70953;SDS011;58618;47.490;8.736;2024-01-15T01:43:22;24.33;;;9.90;;
70953;SDS011;58618;47.490;8.736;2024-01-15T01:46:11;22.15;;;9.68;;
70953;SDS011;58618;47.490;8.736;2024-01-15T01:48:58;21.67;;;10.38;;
70953;SDS011;58618;47.490;8.736;2024-01-15T01:51:51;22.33;;;9.82;;
70953;SDS011;58618;47.490;8.736;2024-01-15T01:54:38;19.80;;;9.98;;
70953;SDS011;58618;47.490;8.736;2024-01-15T01:57:27;17.13;;;8.90;;
70953;SDS011;58618;47.490;8.736;2024-01-15T02:00:16;19.52;;;8.93;;
70953;SDS011;58618;47.490;8.736;2024-01-15T02:03:05;20.65;;;8.95;;
70953;SDS011;58618;47.490;8.736;2024-01-15T02:05:53;16.80;;;8.05;;
70953;SDS011;58618;47.490;8.736;2024-01-15T02:08:41;19.13;;;8.43;;
70953;SDS011;58618;47.490;8.736;2024-01-15T02:11:30;20.00;;;9.40;;
70953;SDS011;58618;47.490;8.736;2024-01-15T02:14:18;18.80;;;8.80;;
70953;SDS011;58618;47.490;8.736;2024-01-15T02:17:05;22.52;;;9.52;;
70953;SDS011;58618;47.490;8.736;2024-01-15T02:19:54;20.02;;;9.13;;
70953;SDS011;58618;47.490;8.736;2024-01-15T02:22:41;22.30;;;9.13;;
70953;SDS011;58618;47.490;8.736;2024-01-15T02:25:30;23.47;;;9.37;;
70953;SDS011;58618;47.490;8.736;2024-01-15T02:28:17;23.67;;;10.18;;
70953;SDS011;58618;47.490;8.736;2024-01-15T02:31:05;23.13;;;9.43;;
70953;SDS011;58618;47.490;8.736;2024-01-15T02:33:52;26.05;;;9.80;;
70953;SDS011;58618;47.490;8.736;2024-01-15T02:36:40;23.75;;;9.88;;
70953;SDS011;58618;47.490;8.736;2024-01-15T02:39:27;23.27;;;9.07;;
70953;SDS011;58618;47.490;8.736;2024-01-15T02:42:16;25.67;;;10.10;;
70953;SDS011;58618;47.490;8.736;2024-01-15T02:45:04;25.23;;;9.23;;
70953;SDS011;58618;47.490;8.736;2024-01-15T02:47:51;24.02;;;9.68;;
70953;SDS011;58618;47.490;8.736;2024-01-15T02:50:39;24.75;;;10.02;;
70953;SDS011;58618;47.490;8.736;2024-01-15T02:53:26;20.27;;;7.90;;
70953;SDS011;58618;47.490;8.736;2024-01-15T02:56:13;21.92;;;9.35;;
70953;SDS011;58618;47.490;8.736;2024-01-15T02:59:02;25.20;;;10.05;;
70953;SDS011;58618;47.490;8.736;2024-01-15T03:01:50;24.02;;;10.30;;
70953;SDS011;58618;47.490;8.736;2024-01-15T03:04:37;26.30;;;9.90;;
70953;SDS011;58618;47.490;8.736;2024-01-15T03:07:25;23.73;;;9.20;;
70953;SDS011;58618;47.490;8.736;2024-01-15T03:10:12;24.77;;;10.77;;
70953;SDS011;58618;47.490;8.736;2024-01-15T03:12:59;26.10;;;9.80;;
70953;SDS011;58618;47.490;8.736;2024-01-15T03:15:49;22.88;;;9.38;;
70953;SDS011;58618;47.490;8.736;2024-01-15T03:18:36;22.20;;;8.60;;
70953;SDS011;58618;47.490;8.736;2024-01-15T03:21:23;19.60;;;8.30;;
70953;SDS011;58618;47.490;8.736;2024-01-15T03:24:11;23.45;;;9.13;;
70953;SDS011;58618;47.490;8.736;2024-01-15T03:26:58;23.98;;;8.68;;
70953;SDS011;58618;47.490;8.736;2024-01-15T03:29:45;20.10;;;8.48;;
70953;SDS011;58618;47.490;8.736;2024-01-15T03:32:34;22.35;;;8.30;;
70953;SDS011;58618;47.490;8.736;2024-01-15T03:35:22;22.40;;;8.40;;
70953;SDS011;58618;47.490;8.736;2024-01-15T03:38:09;23.73;;;7.93;;
70953;SDS011;58618;47.490;8.736;2024-01-15T03:40:57;25.88;;;9.63;;
70953;SDS011;58618;47.490;8.736;2024-01-15T03:43:44;20.23;;;8.20;;
70953;SDS011;58618;47.490;8.736;2024-01-15T03:46:31;21.88;;;8.13;;
70953;SDS011;58618;47.490;8.736;2024-01-15T03:49:20;23.20;;;8.63;;
70953;SDS011;58618;47.490;8.736;2024-01-15T03:52:08;19.65;;;7.45;;
70953;SDS011;58618;47.490;8.736;2024-01-15T03:54:55;18.63;;;7.55;;
70953;SDS011;58618;47.490;8.736;2024-01-15T03:57:42;20.60;;;6.85;;
70953;SDS011;58618;47.490;8.736;2024-01-15T04:00:30;21.50;;;7.63;;
70953;SDS011;58618;47.490;8.736;2024-01-15T04:03:17;19.17;;;7.93;;
70953;SDS011;58618;47.490;8.736;2024-01-15T04:06:06;17.65;;;6.95;;
70953;SDS011;58618;47.490;8.736;2024-01-15T04:08:53;20.02;;;7.15;;
70953;SDS011;58618;47.490;8.736;2024-01-15T04:11:40;19.77;;;7.85;;
70953;SDS011;58618;47.490;8.736;2024-01-15T04:14:28;15.40;;;6.75;;
70953;SDS011;58618;47.490;8.736;2024-01-15T04:17:15;18.77;;;7.37;;
70953;SDS011;58618;47.490;8.736;2024-01-15T04:20:04;18.35;;;6.50;;
70953;SDS011;58618;47.490;8.736;2024-01-15T04:22:53;17.52;;;7.75;;
70953;SDS011;58618;47.490;8.736;2024-01-15T04:25:41;19.73;;;7.50;;
70953;SDS011;58618;47.490;8.736;2024-01-15T04:28:28;16.90;;;6.70;;
70953;SDS011;58618;47.490;8.736;2024-01-15T04:31:22;17.97;;;7.33;;
70953;SDS011;58618;47.490;8.736;2024-01-15T04:34:10;19.08;;;7.03;;
70953;SDS011;58618;47.490;8.736;2024-01-15T04:36:58;19.90;;;6.88;;
70953;SDS011;58618;47.490;8.736;2024-01-15T04:39:46;21.50;;;7.07;;
70953;SDS011;58618;47.490;8.736;2024-01-15T04:42:34;19.10;;;7.03;;
70953;SDS011;58618;47.490;8.736;2024-01-15T04:45:21;19.70;;;6.77;;
70953;SDS011;58618;47.490;8.736;2024-01-15T04:48:14;20.75;;;7.43;;
70953;SDS011;58618;47.490;8.736;2024-01-15T04:51:03;19.38;;;7.35;;
70953;SDS011;58618;47.490;8.736;2024-01-15T04:53:51;19.98;;;7.97;;
70953;SDS011;58618;47.490;8.736;2024-01-15T04:56:40;20.08;;;7.53;;
70953;SDS011;58618;47.490;8.736;2024-01-15T04:59:27;18.40;;;7.43;;
70953;SDS011;58618;47.490;8.736;2024-01-15T05:02:14;17.92;;;7.57;;
70953;SDS011;58618;47.490;8.736;2024-01-15T05:05:02;20.55;;;7.55;;
70953;SDS011;58618;47.490;8.736;2024-01-15T05:07:49;19.98;;;7.55;;
70953;SDS011;58618;47.490;8.736;2024-01-15T05:10:37;16.38;;;6.32;;
70953;SDS011;58618;47.490;8.736;2024-01-15T05:13:25;17.70;;;7.00;;
70953;SDS011;58618;47.490;8.736;2024-01-15T05:16:13;18.92;;;7.30;;
70953;SDS011;58618;47.490;8.736;2024-01-15T05:19:00;17.95;;;7.50;;
70953;SDS011;58618;47.490;8.736;2024-01-15T05:21:48;17.65;;;7.13;;
70953;SDS011;58618;47.490;8.736;2024-01-15T05:24:35;15.60;;;6.32;;
70953;SDS011;58618;47.490;8.736;2024-01-15T05:27:22;19.80;;;6.80;;
70953;SDS011;58618;47.490;8.736;2024-01-15T05:30:11;18.52;;;6.93;;
70953;SDS011;58618;47.490;8.736;2024-01-15T05:32:59;16.02;;;7.00;;
70953;SDS011;58618;47.490;8.736;2024-01-15T05:35:47;19.02;;;7.38;;
70953;SDS011;58618;47.490;8.736;2024-01-15T05:38:36;18.38;;;7.18;;
70953;SDS011;58618;47.490;8.736;2024-01-15T05:41:23;18.40;;;7.27;;
70953;SDS011;58618;47.490;8.736;2024-01-15T05:44:10;18.40;;;6.97;;
70953;SDS011;58618;47.490;8.736;2024-01-15T05:46:59;18.30;;;7.57;;
70953;SDS011;58618;47.490;8.736;2024-01-15T05:49:47;19.98;;;7.95;;
70953;SDS011;58618;47.490;8.736;2024-01-15T05:52:34;17.58;;;6.50;;
70953;SDS011;58618;47.490;8.736;2024-01-15T05:55:21;15.53;;;6.77;;
70953;SDS011;58618;47.490;8.736;2024-01-15T05:58:09;18.35;;;6.90;;
70953;SDS011;58618;47.490;8.736;2024-01-15T06:00:56;18.33;;;6.95;;
70953;SDS011;58618;47.490;8.736;2024-01-15T06:03:45;18.08;;;6.95;;
70953;SDS011;58618;47.490;8.736;2024-01-15T06:06:32;17.95;;;6.35;;
70953;SDS011;58618;47.490;8.736;2024-01-15T06:09:19;18.83;;;6.10;;
70953;SDS011;58618;47.490;8.736;2024-01-15T06:12:07;21.17;;;7.43;;
70953;SDS011;58618;47.490;8.736;2024-01-15T06:14:55;17.15;;;6.18;;
70953;SDS011;58618;47.490;8.736;2024-01-15T06:17:42;18.42;;;6.53;;
70953;SDS011;58618;47.490;8.736;2024-01-15T06:20:31;16.50;;;6.93;;
70953;SDS011;58618;47.490;8.736;2024-01-15T06:23:18;18.67;;;6.73;;
70953;SDS011;58618;47.490;8.736;2024-01-15T06:26:06;15.52;;;6.75;;
70953;SDS011;58618;47.490;8.736;2024-01-15T06:28:53;20.98;;;8.07;;
70953;SDS011;58618;47.490;8.736;2024-01-15T06:31:41;19.58;;;7.22;;
70953;SDS011;58618;47.490;8.736;2024-01-15T06:34:28;19.52;;;7.15;;
70953;SDS011;58618;47.490;8.736;2024-01-15T06:37:17;22.13;;;7.10;;
70953;SDS011;58618;47.490;8.736;2024-01-15T06:40:06;18.95;;;6.70;;
70953;SDS011;58618;47.490;8.736;2024-01-15T06:42:55;19.65;;;7.22;;
70953;SDS011;58618;47.490;8.736;2024-01-15T06:45:42;19.35;;;7.75;;
70953;SDS011;58618;47.490;8.736;2024-01-15T06:48:29;18.45;;;6.68;;
70953;SDS011;58618;47.490;8.736;2024-01-15T06:51:16;16.30;;;6.87;;
70953;SDS011;58618;47.490;8.736;2024-01-15T06:54:05;19.77;;;7.20;;
70953;SDS011;58618;47.490;8.736;2024-01-15T06:56:53;21.23;;;6.88;;
70953;SDS011;58618;47.490;8.736;2024-01-15T06:59:41;17.55;;;7.25;;
70953;SDS011;58618;47.490;8.736;2024-01-15T07:02:28;21.02;;;7.70;;
70953;SDS011;58618;47.490;8.736;2024-01-15T07:05:15;17.73;;;7.03;;
70953;SDS011;58618;47.490;8.736;2024-01-15T07:08:03;18.77;;;7.18;;
70953;SDS011;58618;47.490;8.736;2024-01-15T07:10:52;19.67;;;7.35;;
70953;SDS011;58618;47.490;8.736;2024-01-15T07:13:39;19.13;;;7.10;;
70953;SDS011;58618;47.490;8.736;2024-01-15T07:16:27;17.95;;;6.50;;
70953;SDS011;58618;47.490;8.736;2024-01-15T07:19:14;17.03;;;6.80;;
70953;SDS011;58618;47.490;8.736;2024-01-15T07:22:01;19.80;;;7.15;;
70953;SDS011;58618;47.490;8.736;2024-01-15T07:24:49;17.90;;;6.57;;
70953;SDS011;58618;47.490;8.736;2024-01-15T07:27:38;18.13;;;7.00;;
70953;SDS011;58618;47.490;8.736;2024-01-15T07:30:25;16.52;;;7.05;;
70953;SDS011;58618;47.490;8.736;2024-01-15T07:33:13;18.57;;;6.87;;
70953;SDS011;58618;47.490;8.736;2024-01-15T07:36:00;20.73;;;6.97;;
70953;SDS011;58618;47.490;8.736;2024-01-15T07:38:48;17.50;;;7.38;;
70953;SDS011;58618;47.490;8.736;2024-01-15T07:41:36;17.77;;;6.82;;
70953;SDS011;58618;47.490;8.736;2024-01-15T07:44:24;20.15;;;7.47;;
70953;SDS011;58618;47.490;8.736;2024-01-15T07:47:12;17.50;;;6.70;;
70953;SDS011;58618;47.490;8.736;2024-01-15T07:49:59;17.58;;;7.22;;
70953;SDS011;58618;47.490;8.736;2024-01-15T07:52:47;19.38;;;7.53;;
70953;SDS011;58618;47.490;8.736;2024-01-15T07:55:34;18.05;;;7.30;;
70953;SDS011;58618;47.490;8.736;2024-01-15T07:58:22;19.67;;;7.05;;
70953;SDS011;58618;47.490;8.736;2024-01-15T08:01:10;16.47;;;6.60;;
70953;SDS011;58618;47.490;8.736;2024-01-15T08:03:58;15.40;;;6.00;;
70953;SDS011;58618;47.490;8.736;2024-01-15T08:06:45;16.17;;;6.60;;
70953;SDS011;58618;47.490;8.736;2024-01-15T08:09:33;17.65;;;6.78;;
70953;SDS011;58618;47.490;8.736;2024-01-15T08:12:20;15.65;;;6.70;;
70953;SDS011;58618;47.490;8.736;2024-01-15T08:15:08;16.93;;;6.57;;
70953;SDS011;58618;47.490;8.736;2024-01-15T08:17:57;15.45;;;6.13;;
70953;SDS011;58618;47.490;8.736;2024-01-15T08:20:44;13.82;;;6.38;;
70953;SDS011;58618;47.490;8.736;2024-01-15T08:23:31;16.98;;;6.80;;
70953;SDS011;58618;47.490;8.736;2024-01-15T08:26:19;15.15;;;6.30;;
70953;SDS011;58618;47.490;8.736;2024-01-15T08:29:07;19.40;;;6.93;;
70953;SDS011;58618;47.490;8.736;2024-01-15T08:31:54;15.80;;;6.45;;
70953;SDS011;58618;47.490;8.736;2024-01-15T08:34:43;14.60;;;6.63;;
70953;SDS011;58618;47.490;8.736;2024-01-15T08:37:32;16.75;;;5.95;;
70953;SDS011;58618;47.490;8.736;2024-01-15T08:40:20;14.85;;;6.38;;
70953;SDS011;58618;47.490;8.736;2024-01-15T08:43:08;14.20;;;6.37;;
70953;SDS011;58618;47.490;8.736;2024-01-15T08:45:55;13.55;;;6.32;;
70953;SDS011;58618;47.490;8.736;2024-01-15T08:48:42;14.68;;;6.50;;
70953;SDS011;58618;47.490;8.736;2024-01-15T08:51:31;15.65;;;5.85;;
70953;SDS011;58618;47.490;8.736;2024-01-15T08:54:19;13.35;;;5.55;;
70953;SDS011;58618;47.490;8.736;2024-01-15T08:57:06;13.53;;;5.43;;
70953;SDS011;58618;47.490;8.736;2024-01-15T08:59:53;15.05;;;5.63;;
70953;SDS011;58618;47.490;8.736;2024-01-15T09:02:41;13.45;;;5.65;;
70953;SDS011;58618;47.490;8.736;2024-01-15T09:05:29;13.80;;;5.72;;
70953;SDS011;58618;47.490;8.736;2024-01-15T09:08:17;14.00;;;5.25;;
70953;SDS011;58618;47.490;8.736;2024-01-15T09:11:05;11.50;;;5.00;;
70953;SDS011;58618;47.490;8.736;2024-01-15T09:13:52;11.75;;;4.80;;
70953;SDS011;58618;47.490;8.736;2024-01-15T09:16:39;16.17;;;5.22;;
70953;SDS011;58618;47.490;8.736;2024-01-15T09:19:27;13.40;;;5.32;;
70953;SDS011;58618;47.490;8.736;2024-01-15T09:22:14;13.20;;;5.28;;
70953;SDS011;58618;47.490;8.736;2024-01-15T09:25:05;11.40;;;5.03;;
70953;SDS011;58618;47.490;8.736;2024-01-15T09:27:54;11.05;;;4.68;;
70953;SDS011;58618;47.490;8.736;2024-01-15T09:30:41;11.25;;;4.65;;
70953;SDS011;58618;47.490;8.736;2024-01-15T09:33:30;10.10;;;4.57;;
70953;SDS011;58618;47.490;8.736;2024-01-15T09:36:18;12.27;;;4.60;;
70953;SDS011;58618;47.490;8.736;2024-01-15T09:39:05;10.77;;;4.27;;
70953;SDS011;58618;47.490;8.736;2024-01-15T09:41:55;13.75;;;4.97;;
70953;SDS011;58618;47.490;8.736;2024-01-15T09:44:43;12.90;;;5.13;;
70953;SDS011;58618;47.490;8.736;2024-01-15T09:47:32;13.18;;;4.82;;
70953;SDS011;58618;47.490;8.736;2024-01-15T09:50:20;11.65;;;4.72;;
70953;SDS011;58618;47.490;8.736;2024-01-15T09:53:07;10.43;;;4.00;;
70953;SDS011;58618;47.490;8.736;2024-01-15T09:55:57;9.77;;;4.40;;
70953;SDS011;58618;47.490;8.736;2024-01-15T09:58:46;10.98;;;4.63;;
70953;SDS011;58618;47.490;8.736;2024-01-15T10:01:34;8.48;;;4.05;;
70953;SDS011;58618;47.490;8.736;2024-01-15T10:04:24;8.57;;;3.70;;
70953;SDS011;58618;47.490;8.736;2024-01-15T10:07:12;8.70;;;3.90;;
70953;SDS011;58618;47.490;8.736;2024-01-15T10:10:03;8.30;;;4.20;;
70953;SDS011;58618;47.490;8.736;2024-01-15T10:12:51;9.50;;;4.50;;
70953;SDS011;58618;47.490;8.736;2024-01-15T10:15:44;10.88;;;4.05;;
70953;SDS011;58618;47.490;8.736;2024-01-15T10:18:32;11.25;;;4.55;;
70953;SDS011;58618;47.490;8.736;2024-01-15T10:21:20;10.80;;;4.07;;
70953;SDS011;58618;47.490;8.736;2024-01-15T10:24:07;10.70;;;4.30;;
70953;SDS011;58618;47.490;8.736;2024-01-15T10:26:59;9.07;;;4.13;;
70953;SDS011;58618;47.490;8.736;2024-01-15T10:29:52;8.20;;;3.63;;
70953;SDS011;58618;47.490;8.736;2024-01-15T10:32:41;8.82;;;3.60;;
70953;SDS011;58618;47.490;8.736;2024-01-15T10:35:29;10.40;;;3.50;;
70953;SDS011;58618;47.490;8.736;2024-01-15T10:38:17;8.93;;;4.15;;
70953;SDS011;58618;47.490;8.736;2024-01-15T10:41:07;8.90;;;3.58;;
70953;SDS011;58618;47.490;8.736;2024-01-15T10:43:55;7.15;;;3.30;;
70953;SDS011;58618;47.490;8.736;2024-01-15T10:46:43;7.50;;;3.22;;
70953;SDS011;58618;47.490;8.736;2024-01-15T10:49:32;8.37;;;3.50;;
70953;SDS011;58618;47.490;8.736;2024-01-15T10:52:19;7.78;;;3.22;;
70953;SDS011;58618;47.490;8.736;2024-01-15T10:55:08;10.35;;;3.65;;
70953;SDS011;58618;47.490;8.736;2024-01-15T10:57:56;7.88;;;3.45;;
70953;SDS011;58618;47.490;8.736;2024-01-15T11:00:44;9.98;;;3.40;;
70953;SDS011;58618;47.490;8.736;2024-01-15T11:03:32;8.70;;;3.10;;
70953;SDS011;58618;47.490;8.736;2024-01-15T11:06:22;9.75;;;3.45;;
70953;SDS011;58618;47.490;8.736;2024-01-15T11:09:11;8.27;;;3.67;;
70953;SDS011;58618;47.490;8.736;2024-01-15T11:12:07;7.43;;;2.92;;
70953;SDS011;58618;47.490;8.736;2024-01-15T11:15:00;7.13;;;3.50;;
70953;SDS011;58618;47.490;8.736;2024-01-15T11:18:00;7.10;;;2.97;;
70953;SDS011;58618;47.490;8.736;2024-01-15T11:24:33;7.15;;;3.42;;
70953;SDS011;58618;47.490;8.736;2024-01-15T11:27:39;6.40;;;3.00;;
70953;SDS011;58618;47.490;8.736;2024-01-15T11:30:27;7.43;;;3.10;;
70953;SDS011;58618;47.490;8.736;2024-01-15T11:36:20;7.03;;;3.03;;
70953;SDS011;58618;47.490;8.736;2024-01-15T11:42:32;10.23;;;3.63;;
70953;SDS011;58618;47.490;8.736;2024-01-15T11:45:20;8.65;;;4.00;;
70953;SDS011;58618;47.490;8.736;2024-01-15T11:51:03;7.93;;;4.07;;
70953;SDS011;58618;47.490;8.736;2024-01-15T11:53:52;8.50;;;3.97;;
70953;SDS011;58618;47.490;8.736;2024-01-15T11:56:48;7.85;;;3.90;;
70953;SDS011;58618;47.490;8.736;2024-01-15T11:59:36;9.60;;;3.92;;
70953;SDS011;58618;47.490;8.736;2024-01-15T12:02:24;6.30;;;3.63;;
70953;SDS011;58618;47.490;8.736;2024-01-15T12:05:12;9.40;;;4.00;;
70953;SDS011;58618;47.490;8.736;2024-01-15T12:08:00;8.55;;;3.88;;
70953;SDS011;58618;47.490;8.736;2024-01-15T12:10:48;11.25;;;4.00;;
70953;SDS011;58618;47.490;8.736;2024-01-15T12:13:37;8.88;;;4.15;;
70953;SDS011;58618;47.490;8.736;2024-01-15T12:16:24;8.27;;;3.77;;
70953;SDS011;58618;47.490;8.736;2024-01-15T12:19:12;9.55;;;3.67;;
70953;SDS011;58618;47.490;8.736;2024-01-15T12:22:01;7.88;;;3.70;;
70953;SDS011;58618;47.490;8.736;2024-01-15T12:24:48;9.25;;;4.00;;
70953;SDS011;58618;47.490;8.736;2024-01-15T12:27:36;7.70;;;3.42;;
70953;SDS011;58618;47.490;8.736;2024-01-15T12:30:25;6.97;;;3.33;;
70953;SDS011;58618;47.490;8.736;2024-01-15T12:33:13;7.30;;;3.58;;
70953;SDS011;58618;47.490;8.736;2024-01-15T12:36:00;9.82;;;3.90;;
70953;SDS011;58618;47.490;8.736;2024-01-15T12:38:48;5.28;;;2.80;;
70953;SDS011;58618;47.490;8.736;2024-01-15T12:41:35;6.70;;;3.47;;
70953;SDS011;58618;47.490;8.736;2024-01-15T12:44:22;5.67;;;3.53;;
70953;SDS011;58618;47.490;8.736;2024-01-15T12:47:11;6.57;;;3.13;;
70953;SDS011;58618;47.490;8.736;2024-01-15T12:50:00;5.95;;;3.13;;
70953;SDS011;58618;47.490;8.736;2024-01-15T12:52:47;7.32;;;3.33;;
70953;SDS011;58618;47.490;8.736;2024-01-15T12:55:35;7.82;;;3.38;;
70953;SDS011;58618;47.490;8.736;2024-01-15T12:58:22;9.63;;;3.40;;
70953;SDS011;58618;47.490;8.736;2024-01-15T13:01:09;6.07;;;3.38;;
70953;SDS011;58618;47.490;8.736;2024-01-15T13:03:58;5.93;;;3.35;;
70953;SDS011;58618;47.490;8.736;2024-01-15T13:06:46;8.02;;;3.08;;
70953;SDS011;58618;47.490;8.736;2024-01-15T13:09:33;5.82;;;3.13;;
70953;SDS011;58618;47.490;8.736;2024-01-15T13:12:21;5.10;;;2.73;;
70953;SDS011;58618;47.490;8.736;2024-01-15T13:15:09;6.28;;;2.80;;
70953;SDS011;58618;47.490;8.736;2024-01-15T13:17:57;5.57;;;3.00;;
70953;SDS011;58618;47.490;8.736;2024-01-15T13:20:46;6.95;;;2.70;;
70953;SDS011;58618;47.490;8.736;2024-01-15T13:23:33;6.50;;;3.17;;
70953;SDS011;58618;47.490;8.736;2024-01-15T13:26:20;6.50;;;2.70;;
70953;SDS011;58618;47.490;8.736;2024-01-15T13:29:08;7.93;;;3.22;;
70953;SDS011;58618;47.490;8.736;2024-01-15T13:31:56;6.50;;;3.10;;
70953;SDS011;58618;47.490;8.736;2024-01-15T13:34:43;6.93;;;3.40;;
70953;SDS011;58618;47.490;8.736;2024-01-15T13:37:32;9.82;;;3.40;;
70953;SDS011;58618;47.490;8.736;2024-01-15T13:40:19;7.97;;;3.20;;
70953;SDS011;58618;47.490;8.736;2024-01-15T13:43:07;7.88;;;3.72;;
70953;SDS011;58618;47.490;8.736;2024-01-15T13:45:55;12.50;;;5.47;;
70953;SDS011;58618;47.490;8.736;2024-01-15T13:48:42;8.73;;;4.38;;
70953;SDS011;58618;47.490;8.736;2024-01-15T13:51:30;11.90;;;5.60;;
70953;SDS011;58618;47.490;8.736;2024-01-15T13:54:18;9.80;;;4.73;;
70953;SDS011;58618;47.490;8.736;2024-01-15T13:57:06;8.93;;;4.43;;
70953;SDS011;58618;47.490;8.736;2024-01-15T13:59:54;13.07;;;4.60;;
70953;SDS011;58618;47.490;8.736;2024-01-15T14:02:41;9.27;;;4.63;;
70953;SDS011;58618;47.490;8.736;2024-01-15T14:05:29;13.27;;;5.95;;
70953;SDS011;58618;47.490;8.736;2024-01-15T14:08:16;14.30;;;7.23;;
70953;SDS011;58618;47.490;8.736;2024-01-15T14:11:05;15.10;;;6.95;;
70953;SDS011;58618;47.490;8.736;2024-01-15T14:13:52;19.88;;;8.00;;
70953;SDS011;58618;47.490;8.736;2024-01-15T14:16:40;18.35;;;7.13;;
70953;SDS011;58618;47.490;8.736;2024-01-15T14:19:27;16.17;;;7.90;;
70953;SDS011;58618;47.490;8.736;2024-01-15T14:22:15;17.20;;;7.97;;
70953;SDS011;58618;47.490;8.736;2024-01-15T14:25:02;15.98;;;7.05;;
70953;SDS011;58618;47.490;8.736;2024-01-15T14:27:51;16.40;;;7.75;;
70953;SDS011;58618;47.490;8.736;2024-01-15T14:30:39;17.05;;;8.07;;
70953;SDS011;58618;47.490;8.736;2024-01-15T14:33:26;23.13;;;7.90;;
70953;SDS011;58618;47.490;8.736;2024-01-15T14:36:13;16.50;;;7.50;;
70953;SDS011;58618;47.490;8.736;2024-01-15T14:39:01;19.25;;;9.05;;
70953;SDS011;58618;47.490;8.736;2024-01-15T14:41:49;19.23;;;8.95;;
70953;SDS011;58618;47.490;8.736;2024-01-15T14:44:37;19.75;;;8.60;;
70953;SDS011;58618;47.490;8.736;2024-01-15T14:47:26;20.95;;;8.80;;
70953;SDS011;58618;47.490;8.736;2024-01-15T14:50:14;19.90;;;8.70;;
70953;SDS011;58618;47.490;8.736;2024-01-15T14:53:03;19.27;;;8.32;;
70953;SDS011;58618;47.490;8.736;2024-01-15T14:55:51;20.98;;;8.85;;
70953;SDS011;58618;47.490;8.736;2024-01-15T14:58:39;18.17;;;7.82;;
70953;SDS011;58618;47.490;8.736;2024-01-15T15:01:28;22.40;;;9.43;;
70953;SDS011;58618;47.490;8.736;2024-01-15T15:04:16;19.73;;;9.53;;
70953;SDS011;58618;47.490;8.736;2024-01-15T15:07:03;19.88;;;8.63;;
70953;SDS011;58618;47.490;8.736;2024-01-15T15:09:52;20.38;;;8.90;;
70953;SDS011;58618;47.490;8.736;2024-01-15T15:12:39;20.83;;;8.40;;
70953;SDS011;58618;47.490;8.736;2024-01-15T15:15:27;21.42;;;9.25;;
70953;SDS011;58618;47.490;8.736;2024-01-15T15:18:16;18.83;;;8.43;;
70953;SDS011;58618;47.490;8.736;2024-01-15T15:21:03;20.02;;;8.27;;
70953;SDS011;58618;47.490;8.736;2024-01-15T15:23:53;17.00;;;8.13;;
70953;SDS011;58618;47.490;8.736;2024-01-15T15:26:40;18.30;;;7.88;;
70953;SDS011;58618;47.490;8.736;2024-01-15T15:29:29;14.98;;;7.18;;
70953;SDS011;58618;47.490;8.736;2024-01-15T15:32:16;18.00;;;7.67;;
70953;SDS011;58618;47.490;8.736;2024-01-15T15:35:06;13.65;;;6.70;;
70953;SDS011;58618;47.490;8.736;2024-01-15T15:37:55;13.20;;;6.30;;
70953;SDS011;58618;47.490;8.736;2024-01-15T15:40:42;16.70;;;7.35;;
70953;SDS011;58618;47.490;8.736;2024-01-15T15:43:30;17.80;;;7.25;;
70953;SDS011;58618;47.490;8.736;2024-01-15T15:46:18;12.77;;;5.50;;
70953;SDS011;58618;47.490;8.736;2024-01-15T15:49:05;14.68;;;5.68;;
70953;SDS011;58618;47.490;8.736;2024-01-15T15:51:54;13.75;;;6.05;;
70953;SDS011;58618;47.490;8.736;2024-01-15T15:54:42;12.98;;;5.68;;
70953;SDS011;58618;47.490;8.736;2024-01-15T15:57:29;13.43;;;5.75;;
70953;SDS011;58618;47.490;8.736;2024-01-15T16:00:17;11.67;;;4.73;;
70953;SDS011;58618;47.490;8.736;2024-01-15T16:03:05;10.38;;;4.47;;
70953;SDS011;58618;47.490;8.736;2024-01-15T16:05:52;14.05;;;5.32;;
70953;SDS011;58618;47.490;8.736;2024-01-15T16:08:41;9.52;;;5.20;;
70953;SDS011;58618;47.490;8.736;2024-01-15T16:11:29;11.23;;;5.43;;
70953;SDS011;58618;47.490;8.736;2024-01-15T16:14:17;10.13;;;4.73;;
70953;SDS011;58618;47.490;8.736;2024-01-15T16:17:04;14.15;;;5.65;;
70953;SDS011;58618;47.490;8.736;2024-01-15T16:19:52;10.90;;;5.78;;
70953;SDS011;58618;47.490;8.736;2024-01-15T16:22:39;12.25;;;5.45;;
70953;SDS011;58618;47.490;8.736;2024-01-15T16:25:28;10.75;;;5.22;;
70953;SDS011;58618;47.490;8.736;2024-01-15T16:28:16;10.70;;;5.10;;
70953;SDS011;58618;47.490;8.736;2024-01-15T16:31:03;8.02;;;4.00;;
70953;SDS011;58618;47.490;8.736;2024-01-15T16:33:51;9.75;;;4.55;;
70953;SDS011;58618;47.490;8.736;2024-01-15T16:36:38;10.70;;;5.07;;
70953;SDS011;58618;47.490;8.736;2024-01-15T16:39:25;10.43;;;4.90;;
70953;SDS011;58618;47.490;8.736;2024-01-15T16:42:15;11.30;;;4.03;;
70953;SDS011;58618;47.490;8.736;2024-01-15T16:45:02;8.25;;;3.97;;
70953;SDS011;58618;47.490;8.736;2024-01-15T16:47:50;10.50;;;4.50;;
70953;SDS011;58618;47.490;8.736;2024-01-15T16:50:38;11.35;;;4.90;;
70953;SDS011;58618;47.490;8.736;2024-01-15T16:53:25;12.35;;;5.15;;